V.b Algeciras — ECCR — position and weather

sailwx.info

Track history (hours):
 
Tides and Currents Weather Stations Pressure Air Temp Water Temp Dewpoint Dewpoint Depression Visibility Wind Speed Wind Dir Waves Ship Positions

V.b Algeciras

Last reported at 2016-May-31 21:33 UTC. Time now 2016-May-31 21:56 UTC.
Position N 36°08' W 005°25'.

Length 30 m; draft 5.1 m.

Type: Tug. MMSI: 224121250.

Date/timePositionNaut miles runAvg speedWind from/ knotsBaromVisibWave heightAir tempDewpointWater temp
2016-May-31 21:33N 36°08' W 005°25'0 0.0
2016-May-31 20:31N 36°08' W 005°25'0 0.0
2016-May-31 19:32N 36°08' W 005°25'0 0.0
2016-May-31 18:20N 36°08' W 005°25'0 0.0
2016-May-31 17:27N 36°08' W 005°25'0 0.0
2016-May-31 16:26N 36°08' W 005°25'0 0.0
2016-May-31 15:33N 36°08' W 005°25'0 0.0
2016-May-31 14:22N 36°08' W 005°25'0 0.0
2016-May-31 13:33N 36°08' W 005°25'0 0.0
2016-May-31 12:33N 36°08' W 005°25'0 0.0
2016-May-31 11:33N 36°08' W 005°25'1 0.5
2016-May-31 10:32N 36°08' W 005°26'1 0.8
2016-May-31 09:33N 36°08' W 005°25'1 0.1
2016-May-31 04:33N 36°08' W 005°26'0 0.0
2016-May-31 03:27N 36°08' W 005°26'0 0.0
2016-May-31 02:30N 36°08' W 005°26'0 0.0
2016-May-31 01:33N 36°08' W 005°26'0 0.0
2016-May-31 00:30N 36°08' W 005°26'0 0.0
2016-May-30 23:29N 36°08' W 005°26'0 0.0
2016-May-30 22:33N 36°08' W 005°26'0 0.0
2016-May-30 21:11N 36°08' W 005°26'1 1.1
2016-May-30 20:30N 36°09' W 005°26'1 0.6
2016-May-30 18:33N 36°08' W 005°25'0 0.0
2016-May-30 15:33N 36°08' W 005°25'0 0.2
2016-May-30 14:34N 36°07' W 005°25'1 0.6
2016-May-30 13:30N 36°08' W 005°26'0 0.0
2016-May-30 11:27N 36°08' W 005°26'0 0.2
2016-May-30 10:04N 36°08' W 005°25'1 1.2
2016-May-30 09:15N 36°09' W 005°26'1 0.5
2016-May-30 07:26N 36°08' W 005°26'0 0.2
2016-May-30 06:29N 36°08' W 005°25'0 0.2
2016-May-30 05:32N 36°08' W 005°26'0 0.0
2016-May-30 04:15N 36°08' W 005°26'0 0.3
2016-May-30 03:33N 36°08' W 005°25'0 0.1
2016-May-30 02:33N 36°08' W 005°25'0 0.4
2016-May-30 01:32N 36°08' W 005°25'0 0.5
2016-May-30 00:33N 36°08' W 005°26'0 0.0
2016-May-29 23:33N 36°08' W 005°26'0 0.0
2016-May-29 22:11N 36°08' W 005°26'0 0.0
2016-May-29 20:26N 36°08' W 005°26'0 0.2
2016-May-29 18:31N 36°08' W 005°25'1 0.1
2016-May-29 13:32N 36°08' W 005°25'1 0.8
2016-May-29 12:33N 36°07' W 005°24'1 1.0
2016-May-29 11:33N 36°08' W 005°25'0 0.2
2016-May-29 10:33N 36°08' W 005°25'0 0.2
2016-May-29 08:10N 36°08' W 005°26'0 0.0
2016-May-29 05:33N 36°08' W 005°26'0 0.1
2016-May-29 04:31N 36°08' W 005°26'0 0.0
2016-May-29 01:21N 36°08' W 005°26'1 0.8
2016-May-29 00:33N 36°08' W 005°26'1 0.7
2016-May-28 23:34N 36°08' W 005°25'1 0.5
2016-May-28 22:31N 36°09' W 005°25'1 1.0
2016-May-28 21:33N 36°08' W 005°26'0 0.0
2016-May-28 18:32N 36°08' W 005°26'3 0.6
2016-May-28 13:19N 36°10' W 005°23'0 0.1
2016-May-28 10:12N 36°10' W 005°23'3 2.0
2016-May-28 08:33N 36°08' W 005°25'1 0.3
2016-May-28 06:21N 36°08' W 005°26'1 0.7
2016-May-28 05:29N 36°08' W 005°26'1 0.7
2016-May-28 04:33N 36°09' W 005°26'1 0.2
2016-May-28 00:26N 36°08' W 005°26'1 1.0
2016-May-27 23:32N 36°08' W 005°25'1 0.4
2016-May-27 21:33N 36°08' W 005°26'0 0.2
2016-May-27 20:33N 36°08' W 005°26'0 0.1
2016-May-27 18:22N 36°08' W 005°26'0 0.0
2016-May-27 16:33N 36°08' W 005°26'0 0.0
2016-May-27 15:33N 36°08' W 005°26'0 0.0
2016-May-27 14:33N 36°08' W 005°26'0 0.0
2016-May-27 13:15N 36°08' W 005°26'0 0.0
2016-May-27 12:30N 36°08' W 005°26'0 0.0
2016-May-27 10:28N 36°08' W 005°26'0 0.1
2016-May-27 08:08N 36°08' W 005°26'1 0.8
2016-May-27 07:30N 36°09' W 005°26'1 0.5
2016-May-27 06:14N 36°08' W 005°26'0 0.0
2016-May-27 04:33N 36°08' W 005°26'0 0.0
2016-May-27 03:33N 36°08' W 005°26'0 0.0
2016-May-27 02:29N 36°08' W 005°26'0 0.0
2016-May-27 01:33N 36°08' W 005°26'0 0.0
2016-May-27 00:30N 36°08' W 005°26'0 0.0
2016-May-26 23:33N 36°08' W 005°26'0 0.0
2016-May-26 22:09N 36°08' W 005°26'0 0.0
2016-May-26 21:33N 36°08' W 005°26'0 0.0
2016-May-26 20:31N 36°08' W 005°26'0 0.0
2016-May-26 19:33N 36°08' W 005°26'0 0.0
2016-May-26 18:32N 36°08' W 005°26'0 0.0
2016-May-26 16:12N 36°08' W 005°26'0 0.1
2016-May-26 12:15N 36°08' W 005°26'0 0.6
2016-May-26 11:34N 36°08' W 005°26'0 0.0
2016-May-26 10:31N 36°08' W 005°26'0 0.0
2016-May-26 08:27N 36°08' W 005°26'0 0.1
2016-May-26 06:30N 36°08' W 005°26'0 0.1
2016-May-26 05:32N 36°08' W 005°26'0 0.1
2016-May-26 04:29N 36°08' W 005°26'0 0.5
2016-May-26 03:34N 36°08' W 005°26'0 0.0
2016-May-26 02:33N 36°08' W 005°26'0 0.0
2016-May-26 01:33N 36°08' W 005°26'0 0.0
2016-May-26 00:33N 36°08' W 005°26'0 0.0
2016-May-25 23:31N 36°08' W 005°26'0 0.0
2016-May-25 22:32N 36°08' W 005°26'0 0.0
2016-May-25 21:33N 36°08' W 005°26'1 0.5
2016-May-25 19:33N 36°09' W 005°25'1 1.1
2016-May-25 18:33N 36°08' W 005°26'0 0.3
2016-May-25 17:33N 36°08' W 005°26'0 0.3
2016-May-25 16:20N 36°08' W 005°26'0 0.0
2016-May-25 15:33N 36°08' W 005°26'0 0.0
2016-May-25 12:25N 36°08' W 005°26'1 0.9
2016-May-25 11:29N 36°09' W 005°26'1 0.7
2016-May-25 10:33N 36°08' W 005°26'1 0.7
2016-May-25 09:33N 36°09' W 005°26'1 0.1
2016-May-25 04:17N 36°09' W 005°25'1 1.6
2016-May-25 03:24N 36°08' W 005°26'0 0.0
2016-May-25 02:08N 36°08' W 005°26'0 0.0
2016-May-25 01:30N 36°08' W 005°26'1 0.8
2016-May-25 00:33N 36°09' W 005°26'1 0.7
2016-May-24 23:33N 36°08' W 005°26'0 0.4
2016-May-24 22:33N 36°08' W 005°26'0 0.4
2016-May-24 21:33N 36°08' W 005°26'0 0.0
2016-May-24 20:33N 36°08' W 005°26'0 0.0
2016-May-24 19:33N 36°08' W 005°26'0 0.0
2016-May-24 18:33N 36°08' W 005°26'0 0.0
2016-May-24 17:32N 36°08' W 005°26'1 0.6
2016-May-24 15:33N 36°09' W 005°26'1 1.1
2016-May-24 14:33N 36°08' W 005°26'0 0.0
2016-May-24 13:33N 36°08' W 005°26'0 0.0
2016-May-24 12:33N 36°08' W 005°26'0 0.1
2016-May-24 11:29N 36°08' W 005°26'0 0.5
2016-May-24 10:33N 36°08' W 005°26'1 0.4
2016-May-24 09:09N 36°08' W 005°26'0 0.2
2016-May-24 08:04N 36°08' W 005°26'1 1.2
2016-May-24 07:32N 36°09' W 005°26'1 0.6
2016-May-24 06:13N 36°08' W 005°26'0 0.0
2016-May-24 05:32N 36°08' W 005°26'2 1.8
2016-May-24 04:33N 36°09' W 005°25'2 1.5
2016-May-24 03:25N 36°08' W 005°26'1 0.4
2016-May-24 01:33N 36°09' W 005°26'1 0.3
2016-May-23 23:27N 36°08' W 005°26'0 0.0
2016-May-23 19:11N 36°08' W 005°26'0 0.2
2016-May-23 18:33N 36°08' W 005°26'0 0.0
2016-May-23 11:30N 36°08' W 005°26'  
Track history (hours):
 
Tides and Currents Weather Stations Pressure Air Temp Water Temp Dewpoint Dewpoint Depression Visibility Wind Speed Wind Dir Waves Ship Positions

V.b Algeciras

Last reported at 2016-May-31 21:33 UTC. Time now 2016-May-31 21:56 UTC.
Position N 36°08' W 005°25'.

Length 30 m; draft 5.1 m.

Type: Tug. MMSI: 224121250.

Date/timePositionNaut miles runAvg speedWind from/ knotsBaromVisibWave heightAir tempDewpointWater temp
2016-May-31 21:33N 36°08' W 005°25'0 0.0
2016-May-31 20:31N 36°08' W 005°25'0 0.0
2016-May-31 19:32N 36°08' W 005°25'0 0.0
2016-May-31 18:20N 36°08' W 005°25'0 0.0
2016-May-31 17:27N 36°08' W 005°25'0 0.0
2016-May-31 16:26N 36°08' W 005°25'0 0.0
2016-May-31 15:33N 36°08' W 005°25'0 0.0
2016-May-31 14:22N 36°08' W 005°25'0 0.0
2016-May-31 13:33N 36°08' W 005°25'0 0.0
2016-May-31 12:33N 36°08' W 005°25'0 0.0
2016-May-31 11:33N 36°08' W 005°25'1 0.5
2016-May-31 10:32N 36°08' W 005°26'1 0.8
2016-May-31 09:33N 36°08' W 005°25'1 0.1
2016-May-31 04:33N 36°08' W 005°26'0 0.0
2016-May-31 03:27N 36°08' W 005°26'0 0.0
2016-May-31 02:30N 36°08' W 005°26'0 0.0
2016-May-31 01:33N 36°08' W 005°26'0 0.0
2016-May-31 00:30N 36°08' W 005°26'0 0.0
2016-May-30 23:29N 36°08' W 005°26'0 0.0
2016-May-30 22:33N 36°08' W 005°26'0 0.0
2016-May-30 21:11N 36°08' W 005°26'1 1.1
2016-May-30 20:30N 36°09' W 005°26'1 0.6
2016-May-30 18:33N 36°08' W 005°25'0 0.0
2016-May-30 15:33N 36°08' W 005°25'0 0.2
2016-May-30 14:34N 36°07' W 005°25'1 0.6
2016-May-30 13:30N 36°08' W 005°26'0 0.0
2016-May-30 11:27N 36°08' W 005°26'0 0.2
2016-May-30 10:04N 36°08' W 005°25'1 1.2
2016-May-30 09:15N 36°09' W 005°26'1 0.5
2016-May-30 07:26N 36°08' W 005°26'0 0.2
2016-May-30 06:29N 36°08' W 005°25'0 0.2
2016-May-30 05:32N 36°08' W 005°26'0 0.0
2016-May-30 04:15N 36°08' W 005°26'0 0.3
2016-May-30 03:33N 36°08' W 005°25'0 0.1
2016-May-30 02:33N 36°08' W 005°25'0 0.4
2016-May-30 01:32N 36°08' W 005°25'0 0.5
2016-May-30 00:33N 36°08' W 005°26'0 0.0
2016-May-29 23:33N 36°08' W 005°26'0 0.0
2016-May-29 22:11N 36°08' W 005°26'0 0.0
2016-May-29 20:26N 36°08' W 005°26'0 0.2
2016-May-29 18:31N 36°08' W 005°25'1 0.1
2016-May-29 13:32N 36°08' W 005°25'1 0.8
2016-May-29 12:33N 36°07' W 005°24'1 1.0
2016-May-29 11:33N 36°08' W 005°25'0 0.2
2016-May-29 10:33N 36°08' W 005°25'0 0.2
2016-May-29 08:10N 36°08' W 005°26'0 0.0
2016-May-29 05:33N 36°08' W 005°26'0 0.1
2016-May-29 04:31N 36°08' W 005°26'0 0.0
2016-May-29 01:21N 36°08' W 005°26'1 0.8
2016-May-29 00:33N 36°08' W 005°26'1 0.7
2016-May-28 23:34N 36°08' W 005°25'1 0.5
2016-May-28 22:31N 36°09' W 005°25'1 1.0
2016-May-28 21:33N 36°08' W 005°26'0 0.0
2016-May-28 18:32N 36°08' W 005°26'3 0.6
2016-May-28 13:19N 36°10' W 005°23'0 0.1
2016-May-28 10:12N 36°10' W 005°23'3 2.0
2016-May-28 08:33N 36°08' W 005°25'1 0.3
2016-May-28 06:21N 36°08' W 005°26'1 0.7
2016-May-28 05:29N 36°08' W 005°26'1 0.7
2016-May-28 04:33N 36°09' W 005°26'1 0.2
2016-May-28 00:26N 36°08' W 005°26'1 1.0
2016-May-27 23:32N 36°08' W 005°25'1 0.4
2016-May-27 21:33N 36°08' W 005°26'0 0.2
2016-May-27 20:33N 36°08' W 005°26'0 0.1
2016-May-27 18:22N 36°08' W 005°26'0 0.0
2016-May-27 16:33N 36°08' W 005°26'0 0.0
2016-May-27 15:33N 36°08' W 005°26'0 0.0
2016-May-27 14:33N 36°08' W 005°26'0 0.0
2016-May-27 13:15N 36°08' W 005°26'0 0.0
2016-May-27 12:30N 36°08' W 005°26'0 0.0
2016-May-27 10:28N 36°08' W 005°26'0 0.1
2016-May-27 08:08N 36°08' W 005°26'1 0.8
2016-May-27 07:30N 36°09' W 005°26'1 0.5
2016-May-27 06:14N 36°08' W 005°26'0 0.0
2016-May-27 04:33N 36°08' W 005°26'0 0.0
2016-May-27 03:33N 36°08' W 005°26'0 0.0
2016-May-27 02:29N 36°08' W 005°26'0 0.0
2016-May-27 01:33N 36°08' W 005°26'0 0.0
2016-May-27 00:30N 36°08' W 005°26'0 0.0
2016-May-26 23:33N 36°08' W 005°26'0 0.0
2016-May-26 22:09N 36°08' W 005°26'0 0.0
2016-May-26 21:33N 36°08' W 005°26'0 0.0
2016-May-26 20:31N 36°08' W 005°26'0 0.0
2016-May-26 19:33N 36°08' W 005°26'0 0.0
2016-May-26 18:32N 36°08' W 005°26'0 0.0
2016-May-26 16:12N 36°08' W 005°26'0 0.1
2016-May-26 12:15N 36°08' W 005°26'0 0.6
2016-May-26 11:34N 36°08' W 005°26'0 0.0
2016-May-26 10:31N 36°08' W 005°26'0 0.0
2016-May-26 08:27N 36°08' W 005°26'0 0.1
2016-May-26 06:30N 36°08' W 005°26'0 0.1
2016-May-26 05:32N 36°08' W 005°26'0 0.1
2016-May-26 04:29N 36°08' W 005°26'0 0.5
2016-May-26 03:34N 36°08' W 005°26'0 0.0
2016-May-26 02:33N 36°08' W 005°26'0 0.0
2016-May-26 01:33N 36°08' W 005°26'0 0.0
2016-May-26 00:33N 36°08' W 005°26'0 0.0
2016-May-25 23:31N 36°08' W 005°26'0 0.0
2016-May-25 22:32N 36°08' W 005°26'0 0.0
2016-May-25 21:33N 36°08' W 005°26'1 0.5
2016-May-25 19:33N 36°09' W 005°25'1 1.1
2016-May-25 18:33N 36°08' W 005°26'0 0.3
2016-May-25 17:33N 36°08' W 005°26'0 0.3
2016-May-25 16:20N 36°08' W 005°26'0 0.0
2016-May-25 15:33N 36°08' W 005°26'0 0.0
2016-May-25 12:25N 36°08' W 005°26'1 0.9
2016-May-25 11:29N 36°09' W 005°26'1 0.7
2016-May-25 10:33N 36°08' W 005°26'1 0.7
2016-May-25 09:33N 36°09' W 005°26'1 0.1
2016-May-25 04:17N 36°09' W 005°25'1 1.6
2016-May-25 03:24N 36°08' W 005°26'0 0.0
2016-May-25 02:08N 36°08' W 005°26'0 0.0
2016-May-25 01:30N 36°08' W 005°26'1 0.8
2016-May-25 00:33N 36°09' W 005°26'1 0.7
2016-May-24 23:33N 36°08' W 005°26'0 0.4
2016-May-24 22:33N 36°08' W 005°26'0 0.4
2016-May-24 21:33N 36°08' W 005°26'0 0.0
2016-May-24 20:33N 36°08' W 005°26'0 0.0
2016-May-24 19:33N 36°08' W 005°26'0 0.0
2016-May-24 18:33N 36°08' W 005°26'0 0.0
2016-May-24 17:32N 36°08' W 005°26'1 0.6
2016-May-24 15:33N 36°09' W 005°26'1 1.1
2016-May-24 14:33N 36°08' W 005°26'0 0.0
2016-May-24 13:33N 36°08' W 005°26'0 0.0
2016-May-24 12:33N 36°08' W 005°26'0 0.1
2016-May-24 11:29N 36°08' W 005°26'0 0.5
2016-May-24 10:33N 36°08' W 005°26'1 0.4
2016-May-24 09:09N 36°08' W 005°26'0 0.2
2016-May-24 08:04N 36°08' W 005°26'1 1.2
2016-May-24 07:32N 36°09' W 005°26'1 0.6
2016-May-24 06:13N 36°08' W 005°26'0 0.0
2016-May-24 05:32N 36°08' W 005°26'2 1.8
2016-May-24 04:33N 36°09' W 005°25'2 1.5
2016-May-24 03:25N 36°08' W 005°26'1 0.4
2016-May-24 01:33N 36°09' W 005°26'1 0.3
2016-May-23 23:27N 36°08' W 005°26'0 0.0
2016-May-23 19:11N 36°08' W 005°26'0 0.2
2016-May-23 18:33N 36°08' W 005°26'0 0.0
2016-May-23 11:30N 36°08' W 005°26'  

Dump ship's entire track history